createdAt,value
2019-03-13T00:01:59.429Z,3.20
2019-03-13T00:04:30.860Z,3.20
2019-03-13T00:07:03.987Z,3.30
2019-03-13T00:09:35.256Z,3.30
2019-03-13T00:12:08.343Z,3.20
2019-03-13T00:14:39.954Z,3.30
2019-03-13T00:17:11.938Z,3.30
2019-03-13T00:19:43.682Z,3.30
2019-03-13T00:22:15.561Z,3.20
2019-03-13T00:24:47.312Z,3.30
2019-03-13T00:27:18.964Z,3.30
2019-03-13T00:29:50.494Z,3.30
2019-03-13T00:32:22.316Z,3.30
2019-03-13T00:34:55.026Z,3.30
2019-03-13T00:37:26.531Z,3.30
2019-03-13T00:39:58.467Z,3.40
2019-03-13T00:42:31.183Z,3.30
2019-03-13T00:45:04.633Z,3.40
2019-03-13T00:47:38.550Z,3.40
2019-03-13T00:50:10.033Z,3.40
2019-03-13T00:52:41.501Z,3.40
2019-03-13T00:55:12.790Z,3.40
2019-03-13T00:57:44.113Z,3.40
2019-03-13T01:00:21.408Z,3.40
2019-03-13T01:02:53.056Z,3.40
2019-03-13T01:05:34.794Z,3.50
2019-03-13T01:08:06.137Z,3.50
2019-03-13T01:10:38.640Z,3.50
2019-03-13T01:13:10.355Z,3.50
2019-03-13T01:15:41.760Z,3.50
2019-03-13T01:18:13.617Z,3.40
2019-03-13T01:20:45.090Z,3.50
2019-03-13T01:23:16.581Z,3.40
2019-03-13T01:25:48.000Z,3.50
2019-03-13T01:28:19.438Z,3.50
2019-03-13T01:31:02.184Z,3.40
2019-03-13T01:33:33.571Z,3.40
2019-03-13T01:36:04.965Z,3.40
2019-03-13T01:38:36.331Z,3.40
2019-03-13T01:41:07.990Z,3.50
2019-03-13T01:43:39.944Z,3.50
2019-03-13T01:46:11.382Z,3.50
2019-03-13T01:48:42.782Z,3.40
2019-03-13T01:51:14.092Z,3.50
2019-03-13T01:53:45.426Z,3.60
2019-03-13T01:56:17.435Z,3.60
2019-03-13T01:58:49.874Z,3.50
2019-03-13T02:01:21.273Z,3.50
2019-03-13T02:03:52.813Z,3.60
2019-03-13T02:06:25.852Z,3.60
2019-03-13T02:08:57.148Z,3.70
2019-03-13T02:11:29.706Z,3.80
2019-03-13T02:14:01.366Z,3.70
2019-03-13T02:16:33.576Z,3.70
2019-03-13T02:19:05.028Z,3.60
2019-03-13T02:21:36.443Z,3.60
2019-03-13T02:24:07.942Z,3.60
2019-03-13T02:26:39.261Z,3.50
2019-03-13T02:29:10.592Z,3.50
2019-03-13T02:31:42.010Z,3.50
2019-03-13T02:34:13.676Z,3.50
2019-03-13T02:36:45.412Z,3.50
2019-03-13T02:39:16.802Z,3.50
2019-03-13T02:41:48.212Z,3.50
2019-03-13T02:44:20.135Z,3.50
2019-03-13T02:46:51.476Z,3.50
2019-03-13T02:49:23.583Z,3.50
2019-03-13T02:51:55.019Z,3.60
2019-03-13T02:54:26.361Z,3.60
2019-03-13T02:56:58.265Z,3.60
2019-03-13T02:59:30.446Z,3.60
2019-03-13T03:02:16.690Z,3.60
2019-03-13T03:04:49.079Z,3.60
2019-03-13T03:07:21.271Z,3.60
2019-03-13T03:09:53.023Z,3.60
2019-03-13T03:12:24.661Z,3.60
2019-03-13T03:15:04.255Z,3.60
2019-03-13T03:17:35.495Z,3.70
2019-03-13T03:20:09.153Z,3.60
2019-03-13T03:22:40.455Z,3.70
2019-03-13T03:25:12.437Z,3.60
2019-03-13T03:27:43.834Z,3.70
2019-03-13T03:30:17.968Z,3.60
2019-03-13T03:32:49.310Z,3.60
2019-03-13T03:35:20.605Z,3.60
2019-03-13T03:37:52.094Z,3.70
2019-03-13T03:40:23.840Z,3.70
2019-03-13T03:42:55.537Z,3.70
2019-03-13T03:45:26.867Z,3.70
2019-03-13T03:47:58.402Z,3.80
2019-03-13T03:50:29.833Z,3.70
2019-03-13T03:53:01.328Z,3.80
2019-03-13T03:55:33.028Z,3.70
2019-03-13T03:58:04.291Z,3.70
2019-03-13T04:00:35.581Z,3.70
2019-03-13T04:03:08.052Z,3.80
2019-03-13T04:05:39.508Z,3.80
2019-03-13T04:08:10.825Z,3.70
2019-03-13T04:10:42.771Z,3.70
2019-03-13T04:13:14.072Z,3.70
2019-03-13T04:15:45.847Z,3.80
2019-03-13T04:18:18.308Z,3.80
2019-03-13T04:20:49.769Z,3.90
2019-03-13T04:23:21.277Z,3.80
2019-03-13T04:25:53.739Z,3.80
2019-03-13T04:28:24.971Z,3.80
2019-03-13T04:30:57.369Z,3.80
2019-03-13T04:33:29.468Z,3.80
2019-03-13T04:36:01.109Z,3.90
2019-03-13T04:38:32.468Z,3.80
2019-03-13T04:41:03.762Z,3.90
2019-03-13T04:43:35.096Z,3.90
2019-03-13T04:46:07.368Z,3.80
2019-03-13T04:48:39.312Z,3.80
2019-03-13T04:51:10.900Z,3.90
2019-03-13T04:53:42.231Z,3.80
2019-03-13T04:56:13.643Z,3.90
2019-03-13T04:58:45.013Z,3.90
2019-03-13T05:01:16.335Z,3.90
2019-03-13T05:03:48.121Z,4.00
2019-03-13T05:06:23.751Z,4.00
2019-03-13T05:09:16.307Z,4.10
2019-03-13T05:11:48.264Z,4.10
2019-03-13T05:14:19.780Z,4.00
2019-03-13T05:16:51.288Z,4.10
2019-03-13T05:19:22.759Z,4.10
2019-03-13T05:21:54.088Z,4.00
2019-03-13T05:24:25.469Z,4.00
2019-03-13T05:26:56.804Z,4.10
2019-03-13T05:29:28.545Z,4.00
2019-03-13T05:32:00.228Z,4.10
2019-03-13T05:34:31.626Z,4.00
2019-03-13T05:37:03.736Z,4.10
2019-03-13T05:39:35.653Z,4.10
2019-03-13T05:42:07.224Z,4.10
2019-03-13T05:44:39.311Z,4.10
2019-03-13T05:47:11.441Z,4.10
2019-03-13T05:49:43.007Z,4.10
2019-03-13T05:52:14.579Z,4.30
2019-03-13T05:54:46.153Z,4.20
2019-03-13T05:57:17.379Z,4.10
2019-03-13T05:59:48.788Z,4.20
2019-03-13T06:02:20.227Z,4.20
2019-03-13T06:04:52.496Z,4.10
2019-03-13T06:07:23.994Z,4.20
2019-03-13T06:09:56.192Z,4.20
2019-03-13T06:12:27.666Z,4.30
2019-03-13T06:14:59.363Z,4.30
2019-03-13T06:17:31.265Z,4.40
2019-03-13T06:20:02.848Z,4.30
2019-03-13T06:22:34.913Z,4.40
2019-03-13T06:25:07.726Z,4.40
2019-03-13T06:27:39.568Z,4.60
2019-03-13T06:30:12.169Z,4.50
2019-03-13T06:32:43.811Z,4.60
2019-03-13T06:35:16.860Z,4.60
2019-03-13T06:37:48.465Z,4.70
2019-03-13T06:40:20.676Z,4.70
2019-03-13T06:42:52.051Z,4.70
2019-03-13T06:45:23.919Z,4.80
2019-03-13T06:47:56.599Z,4.90
2019-03-13T06:50:28.104Z,4.90
2019-03-13T06:52:59.559Z,4.90
2019-03-13T06:55:31.019Z,4.90
2019-03-13T06:58:02.467Z,4.90
2019-03-13T07:00:51.315Z,5.00
2019-03-13T07:03:31.160Z,5.10
2019-03-13T07:06:14.054Z,5.00
2019-03-13T07:09:14.425Z,5.00
2019-03-13T07:12:05.206Z,5.00
2019-03-13T07:14:42.313Z,5.10
2019-03-13T07:17:25.149Z,5.10
2019-03-13T07:20:18.350Z,5.00
2019-03-13T07:23:08.830Z,5.00
2019-03-13T07:26:01.672Z,5.00
2019-03-13T07:28:39.253Z,5.00
2019-03-13T07:31:38.645Z,4.90
2019-03-13T07:34:26.480Z,4.90
2019-03-13T07:37:05.503Z,4.80
2019-03-13T07:39:55.899Z,4.90
2019-03-13T07:42:42.527Z,5.00
2019-03-13T07:45:32.745Z,5.00
2019-03-13T07:48:21.324Z,5.00
2019-03-13T07:51:14.712Z,4.70
2019-03-13T07:54:11.849Z,4.80
2019-03-13T07:57:02.331Z,4.80
2019-03-13T08:00:01.714Z,5.00
2019-03-13T08:02:51.977Z,4.90
2019-03-13T08:05:33.669Z,4.90
2019-03-13T08:08:27.715Z,5.10
2019-03-13T08:11:06.740Z,5.10
2019-03-13T08:14:03.605Z,5.10
2019-03-13T08:16:52.361Z,5.10
2019-03-13T08:19:37.011Z,5.00
2019-03-13T08:22:26.583Z,5.00
2019-03-13T08:25:16.957Z,4.80
2019-03-13T08:28:06.654Z,4.70
2019-03-13T08:30:51.549Z,4.80
2019-03-13T08:33:34.862Z,4.80
2019-03-13T08:36:21.997Z,4.90
2019-03-13T08:39:09.312Z,4.80
2019-03-13T08:42:00.814Z,4.80
2019-03-13T08:44:54.311Z,4.80
2019-03-13T08:47:43.665Z,4.80
2019-03-13T08:50:34.907Z,4.80
2019-03-13T08:53:31.613Z,4.70
2019-03-13T08:56:08.157Z,4.70
2019-03-13T08:58:59.571Z,4.80
2019-03-13T09:01:39.300Z,4.80
2019-03-13T09:04:32.697Z,4.70
2019-03-13T09:07:35.950Z,4.70
2019-03-13T09:10:44.552Z,4.90
2019-03-13T09:13:37.489Z,4.90
2019-03-13T09:16:19.898Z,4.90
2019-03-13T09:19:09.144Z,5.00
2019-03-13T09:21:47.456Z,5.10
2019-03-13T09:24:24.160Z,5.00
2019-03-13T09:27:17.246Z,5.10
2019-03-13T09:30:01.267Z,5.00
2019-03-13T09:32:57.153Z,5.10
2019-03-13T09:35:45.883Z,5.20
2019-03-13T09:38:28.046Z,5.30
2019-03-13T09:41:27.259Z,5.60
2019-03-13T09:44:12.693Z,5.40
2019-03-13T09:47:18.581Z,5.40
2019-03-13T09:50:15.090Z,5.70
2019-03-13T09:53:11.341Z,5.70
2019-03-13T09:56:01.634Z,5.60
2019-03-13T09:58:56.362Z,5.60
2019-03-13T10:01:34.760Z,5.70
2019-03-13T10:04:25.785Z,5.70
2019-03-13T10:07:10.074Z,5.90
2019-03-13T10:09:59.224Z,5.90
2019-03-13T10:12:37.381Z,6.10
2019-03-13T10:15:22.185Z,6.30
2019-03-13T10:18:02.513Z,6.30
2019-03-13T10:20:51.439Z,6.40
2019-03-13T10:23:41.977Z,6.60
2019-03-13T10:26:41.557Z,6.80
2019-03-13T10:29:33.883Z,6.70
2019-03-13T10:32:25.428Z,6.90
2019-03-13T10:35:17.003Z,7.10
2019-03-13T10:38:13.958Z,7.20
2019-03-13T10:41:00.015Z,7.00
2019-03-13T10:44:02.495Z,6.80
2019-03-13T10:46:58.711Z,7.00
2019-03-13T10:49:41.242Z,7.00
2019-03-13T10:52:31.571Z,7.00
2019-03-13T10:55:21.465Z,7.10
2019-03-13T10:58:12.273Z,7.20
2019-03-13T11:01:01.286Z,7.20
2019-03-13T11:03:54.929Z,7.40
2019-03-13T11:06:55.206Z,7.70
2019-03-13T11:09:36.078Z,7.80
2019-03-13T11:12:34.425Z,7.90
2019-03-13T11:15:28.437Z,8.00
2019-03-13T11:18:18.334Z,7.90
2019-03-13T11:21:09.040Z,8.00
2019-03-13T11:24:11.693Z,8.00
2019-03-13T11:27:02.165Z,8.10
2019-03-13T11:29:56.680Z,8.20
2019-03-13T11:32:47.764Z,8.20
2019-03-13T11:35:37.027Z,8.20
2019-03-13T11:38:36.448Z,8.20
2019-03-13T11:41:38.921Z,8.10
2019-03-13T11:44:33.583Z,8.20
2019-03-13T11:47:14.447Z,8.30
2019-03-13T11:49:57.064Z,8.40
2019-03-13T11:52:56.851Z,8.30
2019-03-13T11:55:53.535Z,8.20
2019-03-13T11:58:33.847Z,8.10
2019-03-13T12:01:24.484Z,8.00
2019-03-13T12:04:17.662Z,8.10
2019-03-13T12:07:06.804Z,8.40
2019-03-13T12:09:56.266Z,8.70
2019-03-13T12:12:44.650Z,8.90
2019-03-13T12:15:31.731Z,8.90
2019-03-13T12:18:08.249Z,9.10
2019-03-13T12:20:59.606Z,9.20
2019-03-13T12:23:48.709Z,9.40
2019-03-13T12:26:37.509Z,9.60
2019-03-13T12:29:33.847Z,9.60
2019-03-13T12:32:23.536Z,9.30
2019-03-13T12:35:27.185Z,9.50
2019-03-13T12:38:15.854Z,9.40
2019-03-13T12:40:59.913Z,9.30
2019-03-13T12:43:43.778Z,9.20
2019-03-13T12:46:45.753Z,9.00
2019-03-13T12:49:24.048Z,9.00
2019-03-13T12:52:17.563Z,9.20
2019-03-13T12:55:17.753Z,9.40
2019-03-13T12:58:21.044Z,9.60
2019-03-13T13:01:10.028Z,9.90
2019-03-13T13:04:09.823Z,9.70
2019-03-13T13:07:12.435Z,9.50
2019-03-13T13:09:56.438Z,9.30
2019-03-13T13:12:51.637Z,9.40
2019-03-13T13:15:49.095Z,9.30
2019-03-13T13:18:48.378Z,9.20
2019-03-13T13:21:20.867Z,9.20
2019-03-13T13:23:52.295Z,9.30
2019-03-13T13:26:23.625Z,9.40
2019-03-13T13:28:55.520Z,9.60
2019-03-13T13:31:27.175Z,9.60
2019-03-13T13:33:58.489Z,9.50
2019-03-13T13:36:30.351Z,9.50
2019-03-13T13:39:02.717Z,9.60
2019-03-13T13:41:36.281Z,9.60
2019-03-13T13:44:07.717Z,9.60
2019-03-13T13:46:40.758Z,9.70
2019-03-13T13:49:12.907Z,9.70
2019-03-13T13:51:44.758Z,9.60
2019-03-13T13:54:16.529Z,9.60
2019-03-13T13:56:49.027Z,9.60
2019-03-13T13:59:20.538Z,9.50
2019-03-13T14:01:53.594Z,9.60
2019-03-13T14:04:25.416Z,9.60
2019-03-13T14:06:57.905Z,9.40
2019-03-13T14:09:29.704Z,9.30
2019-03-13T14:12:01.479Z,9.30
2019-03-13T14:14:33.051Z,9.30
2019-03-13T14:17:05.317Z,9.30
2019-03-13T14:19:37.941Z,9.40
2019-03-13T14:22:09.945Z,9.30
2019-03-13T14:24:41.670Z,9.30
2019-03-13T14:27:15.084Z,9.40
2019-03-13T14:29:47.435Z,9.30
2019-03-13T14:32:19.912Z,9.20
2019-03-13T14:34:51.271Z,9.30
2019-03-13T14:37:22.833Z,9.20
2019-03-13T14:39:54.188Z,9.30
2019-03-13T14:42:25.599Z,9.30
2019-03-13T14:44:59.914Z,9.30
2019-03-13T14:47:31.700Z,9.30
2019-03-13T14:50:03.035Z,9.30
2019-03-13T14:52:34.447Z,9.30
2019-03-13T14:55:06.256Z,9.30
2019-03-13T14:57:37.695Z,9.30
2019-03-13T15:00:13.297Z,9.40
2019-03-13T15:02:44.769Z,9.30
2019-03-13T15:05:17.006Z,9.30
2019-03-13T15:07:48.419Z,9.30
2019-03-13T15:10:20.716Z,9.20
2019-03-13T15:12:52.235Z,9.20
2019-03-13T15:15:23.702Z,9.20
2019-03-13T15:17:56.408Z,9.10
2019-03-13T15:20:27.922Z,9.20
2019-03-13T15:23:00.622Z,9.10
2019-03-13T15:25:32.892Z,9.00
2019-03-13T15:28:04.711Z,9.00
2019-03-13T15:30:37.041Z,9.00
2019-03-13T15:33:09.199Z,9.00
2019-03-13T15:35:41.321Z,9.00
2019-03-13T15:38:12.832Z,8.90
2019-03-13T15:40:44.148Z,8.90
2019-03-13T15:43:15.516Z,8.80
2019-03-13T15:45:47.093Z,8.80
2019-03-13T15:48:18.417Z,8.80
2019-03-13T15:50:50.003Z,8.70
2019-03-13T15:53:21.517Z,8.70
2019-03-13T15:55:52.978Z,8.70
2019-03-13T15:58:24.463Z,8.70
2019-03-13T16:00:55.860Z,8.70
2019-03-13T16:03:27.206Z,8.70
2019-03-13T16:05:58.752Z,8.70
2019-03-13T16:08:31.211Z,8.60
2019-03-13T16:11:02.617Z,8.70
2019-03-13T16:13:34.031Z,8.70
2019-03-13T16:16:06.171Z,8.70
2019-03-13T16:18:37.725Z,8.60
2019-03-13T16:21:09.395Z,8.60
2019-03-13T16:23:40.959Z,8.60
2019-03-13T16:26:12.394Z,8.60
2019-03-13T16:28:44.253Z,8.50
2019-03-13T16:31:15.661Z,8.50
2019-03-13T16:33:47.100Z,8.50
2019-03-13T16:36:18.428Z,8.50
2019-03-13T16:38:49.807Z,8.40
2019-03-13T16:41:21.237Z,8.40
2019-03-13T16:43:52.658Z,8.40
2019-03-13T16:46:24.552Z,8.40
2019-03-13T16:48:56.171Z,8.50
2019-03-13T16:51:27.593Z,8.40
2019-03-13T16:53:59.399Z,8.40
2019-03-13T16:56:30.787Z,8.40
2019-03-13T16:59:02.654Z,8.40
2019-03-13T17:01:35.011Z,8.40
2019-03-13T17:04:06.951Z,8.30
2019-03-13T17:06:38.830Z,8.30
2019-03-13T17:09:10.930Z,8.30
2019-03-13T17:11:43.941Z,8.30
2019-03-13T17:14:15.344Z,8.30
2019-03-13T17:16:47.078Z,8.30
2019-03-13T17:19:18.512Z,8.30
2019-03-13T17:21:49.940Z,8.30
2019-03-13T17:24:21.425Z,8.30
2019-03-13T17:26:52.921Z,8.30
2019-03-13T17:29:24.956Z,8.40
2019-03-13T17:31:56.636Z,8.40
2019-03-13T17:34:30.399Z,8.40
2019-03-13T17:37:01.367Z,8.30
2019-03-13T17:39:34.137Z,8.40
2019-03-13T17:42:05.583Z,8.30
2019-03-13T17:44:36.905Z,8.30
2019-03-13T17:47:08.246Z,8.20
2019-03-13T17:49:39.542Z,8.20
2019-03-13T17:52:11.910Z,8.20
2019-03-13T17:54:43.396Z,8.30
2019-03-13T17:57:14.964Z,8.30
2019-03-13T17:59:47.079Z,8.20
2019-03-13T18:02:19.350Z,8.10
2019-03-13T18:04:51.747Z,8.10
2019-03-13T18:07:23.258Z,8.20
2019-03-13T18:09:54.516Z,8.20
2019-03-13T18:12:26.027Z,8.20
2019-03-13T18:14:57.385Z,8.10
2019-03-13T18:17:29.097Z,8.20
2019-03-13T18:20:01.076Z,8.10
2019-03-13T18:22:34.754Z,8.10
2019-03-13T18:25:06.447Z,8.20
2019-03-13T18:27:38.262Z,8.20
2019-03-13T18:30:13.178Z,8.20
2019-03-13T18:32:44.567Z,8.20
2019-03-13T18:35:16.224Z,8.10
2019-03-13T18:37:47.842Z,8.10
2019-03-13T18:40:20.840Z,8.10
2019-03-13T18:42:53.593Z,8.10
2019-03-13T18:45:26.249Z,8.10
2019-03-13T18:47:57.825Z,8.10
2019-03-13T18:50:30.086Z,8.10
2019-03-13T18:53:01.675Z,8.10
2019-03-13T18:55:33.301Z,8.10
2019-03-13T18:58:04.781Z,8.10
2019-03-13T19:00:36.254Z,8.10
2019-03-13T19:03:08.393Z,8.00
2019-03-13T19:05:39.769Z,8.00
2019-03-13T19:08:11.185Z,8.00
2019-03-13T19:10:43.442Z,8.00
2019-03-13T19:13:15.327Z,7.90
2019-03-13T19:15:47.049Z,8.00
2019-03-13T19:18:18.384Z,8.00
2019-03-13T19:20:53.747Z,8.00
2019-03-13T19:23:23.935Z,8.00
2019-03-13T19:25:56.065Z,8.00
2019-03-13T19:28:27.533Z,8.00
2019-03-13T19:30:58.969Z,8.00
2019-03-13T19:33:30.311Z,8.00
2019-03-13T19:36:01.754Z,8.00
2019-03-13T19:38:33.105Z,8.00
2019-03-13T19:41:08.520Z,8.00
2019-03-13T19:43:38.571Z,8.00
2019-03-13T19:46:10.077Z,8.00
2019-03-13T19:48:42.816Z,8.00
2019-03-13T19:51:14.190Z,7.90
2019-03-13T19:53:45.731Z,8.00
2019-03-13T19:56:18.103Z,8.00
2019-03-13T19:58:49.625Z,8.00
2019-03-13T20:01:21.975Z,8.00
2019-03-13T20:03:55.818Z,8.00
2019-03-13T20:06:27.534Z,8.00
2019-03-13T20:08:59.755Z,7.90
2019-03-13T20:11:32.050Z,8.00
2019-03-13T20:14:03.909Z,7.90
2019-03-13T20:16:35.287Z,7.90
2019-03-13T20:19:07.931Z,7.90
2019-03-13T20:21:39.325Z,7.90
2019-03-13T20:24:10.763Z,7.90
2019-03-13T20:26:42.450Z,7.90
2019-03-13T20:29:13.888Z,7.80
2019-03-13T20:31:45.330Z,7.80
2019-03-13T20:34:16.741Z,7.80
2019-03-13T20:36:48.187Z,7.80
2019-03-13T20:39:20.025Z,7.90
2019-03-13T20:41:54.140Z,7.90
2019-03-13T20:44:24.731Z,7.80
2019-03-13T20:46:56.673Z,7.80
2019-03-13T20:49:28.193Z,7.80
2019-03-13T20:51:59.999Z,7.70
2019-03-13T20:54:31.839Z,7.80
2019-03-13T20:57:03.428Z,7.80
2019-03-13T20:59:34.930Z,7.80
2019-03-13T21:02:06.734Z,7.80
2019-03-13T21:04:38.197Z,7.80
2019-03-13T21:07:09.707Z,7.80
2019-03-13T21:09:41.101Z,7.80
2019-03-13T21:12:14.081Z,7.90
2019-03-13T21:14:45.514Z,7.80
2019-03-13T21:17:16.958Z,7.90
2019-03-13T21:19:48.417Z,7.80
2019-03-13T21:22:19.988Z,7.80
2019-03-13T21:24:51.267Z,7.80
2019-03-13T21:27:22.913Z,7.80
2019-03-13T21:29:54.374Z,7.70
2019-03-13T21:32:25.707Z,7.70
2019-03-13T21:34:57.270Z,7.70
2019-03-13T21:37:28.731Z,7.70
2019-03-13T21:40:00.526Z,7.70
2019-03-13T21:42:33.824Z,7.70
2019-03-13T21:45:05.445Z,7.70
2019-03-13T21:47:38.850Z,7.70
2019-03-13T21:50:13.394Z,7.70
2019-03-13T21:52:45.261Z,7.80
2019-03-13T21:55:17.414Z,7.70
2019-03-13T21:57:52.280Z,7.70
2019-03-13T22:00:25.022Z,7.70
2019-03-13T22:02:57.544Z,7.70
2019-03-13T22:05:29.482Z,7.70
2019-03-13T22:08:01.739Z,7.70
2019-03-13T22:10:33.244Z,7.70
2019-03-13T22:13:05.389Z,7.70
2019-03-13T22:15:37.398Z,7.70
2019-03-13T22:18:09.261Z,7.70
2019-03-13T22:20:40.739Z,7.70
2019-03-13T22:23:14.053Z,7.70
2019-03-13T22:25:45.368Z,7.70
2019-03-13T22:28:16.763Z,7.70
2019-03-13T22:30:49.148Z,7.70
2019-03-13T22:33:21.313Z,7.60
2019-03-13T22:35:53.702Z,7.70
2019-03-13T22:38:25.632Z,7.70
2019-03-13T22:40:57.152Z,7.60
2019-03-13T22:43:29.595Z,7.60
2019-03-13T22:46:01.101Z,7.70
2019-03-13T22:48:32.825Z,7.70
2019-03-13T22:51:04.184Z,7.60
2019-03-13T22:53:36.030Z,7.60
2019-03-13T22:56:07.422Z,7.60
2019-03-13T22:58:38.716Z,7.70
2019-03-13T23:01:13.428Z,7.70
2019-03-13T23:03:46.315Z,7.70
2019-03-13T23:06:18.246Z,7.70
2019-03-13T23:08:51.544Z,7.70
2019-03-13T23:11:24.123Z,7.70
2019-03-13T23:13:55.513Z,7.70
2019-03-13T23:16:26.750Z,7.70
2019-03-13T23:18:58.469Z,7.70
2019-03-13T23:21:30.206Z,7.70
2019-03-13T23:24:01.811Z,7.70
2019-03-13T23:26:33.590Z,7.70
2019-03-13T23:29:05.733Z,7.70
2019-03-13T23:31:37.124Z,7.70
2019-03-13T23:34:08.413Z,7.60
2019-03-13T23:36:40.095Z,7.60
2019-03-13T23:39:13.537Z,7.60
2019-03-13T23:41:46.923Z,7.60
2019-03-13T23:44:18.709Z,7.60
2019-03-13T23:46:50.995Z,7.60
2019-03-13T23:49:22.752Z,7.50
2019-03-13T23:51:54.177Z,7.40
2019-03-13T23:54:25.778Z,7.40
2019-03-13T23:56:57.258Z,7.40
2019-03-13T23:59:29.224Z,7.40
